Time;durP1;ratioP1;P1;durP2;ratioP2;P2;SDS_P1;SDS_P2;PMS_P1;PMS_P2;Temp;Humidity;BMP_temperature;BMP_pressure;BME280_temperature;BME280_humidity;BME280_pressure;Samples;Min_cycle;Max_cycle;Signal;HPM_P1;HPM_P2
2024/02/26 00:02:02;;;;;;;;;;;;;;;12.76;63.20;99263.47;5031582;28;19964;-86
2024/02/26 00:04:27;;;;;;;;;;;;;;;12.77;62.98;99265.13;5031642;28;19917;-86
2024/02/26 00:06:54;;;;;;;;;;;;;;;12.75;62.95;99259.19;5030403;28;19965;-86
2024/02/26 00:09:19;;;;;;;;;;;;;;;12.75;62.98;99252.06;5030443;28;19913;-86
2024/02/26 00:11:44;;;;;;;;;;;;;;;12.73;63.03;99257.56;5031962;28;19917;-86
2024/02/26 00:14:10;;;;;;;;;;;;;;;12.74;63.17;99253.09;5031867;28;20050;-86
2024/02/26 00:16:35;;;;;;;;;;;;;;;12.73;63.10;99252.28;5032158;28;20279;-86
2024/02/26 00:19:00;;;;;;;;;;;;;;;12.69;63.16;99253.69;5030436;28;19992;-86
2024/02/26 00:21:25;;;;;;;;;;;;;;;12.70;63.39;99239.44;5030206;28;19992;-86
2024/02/26 00:23:52;;;;;;;;;;;;;;;12.66;63.54;99240.03;5031049;28;19913;-86
2024/02/26 00:26:18;;;;;;;;;;;;;;;12.69;62.82;99243.09;5031638;28;19919;-86
2024/02/26 00:28:43;;;;;;;;;;;;;;;12.73;62.60;99243.50;5031662;28;19913;-86
2024/02/26 00:31:08;;;;;;;;;;;;;;;12.71;63.36;99241.06;5030676;28;19913;-85
2024/02/26 00:33:34;;;;;;;;;;;;;;;12.69;62.84;99239.63;5031472;28;19913;-86
2024/02/26 00:35:59;;;;;;;;;;;;;;;12.69;62.52;99229.03;5031597;28;20000;-86
2024/02/26 00:38:24;;;;;;;;;;;;;;;12.68;62.42;99224.75;5030061;28;19917;-86
2024/02/26 00:40:49;;;;;;;;;;;;;;;12.65;62.25;99233.91;5031281;28;19979;-86
2024/02/26 00:43:15;;;;;;;;;;;;;;;12.61;62.28;99227.34;5031305;28;19971;-86
2024/02/26 00:45:40;;;;;;;;;;;;;;;12.57;62.35;99234.06;5030022;28;20402;-86
2024/02/26 00:48:07;;;;;;;;;;;;;;;12.54;62.62;99238.94;5030070;28;19917;-86
2024/02/26 00:50:32;;;;;;;;;;;;;;;12.53;62.12;99229.34;5031510;28;19936;-86
2024/02/26 00:52:57;;;;;;;;;;;;;;;12.53;62.09;99232.81;5030047;28;20378;-86
2024/02/26 00:55:23;;;;;;;;;;;;;;;12.47;62.67;99228.31;5030113;28;20411;-86
2024/02/26 00:57:48;;;;;;;;;;;;;;;12.45;62.31;99232.97;5030035;28;19913;-87
2024/02/26 01:00:13;;;;;;;;;;;;;;;12.47;61.97;99227.50;5029791;28;19984;-86
2024/02/26 01:02:39;;;;;;;;;;;;;;;12.48;62.13;99229.94;5031031;28;19930;-86
2024/02/26 01:05:06;;;;;;;;;;;;;;;12.47;61.68;99220.38;5031133;28;19928;-86
2024/02/26 01:07:35;;;;;;;;;;;;;;;12.47;62.39;99212.41;5031352;28;19980;-86
2024/02/26 01:10:00;;;;;;;;;;;;;;;12.45;62.13;99206.50;5031222;28;19948;-86
2024/02/26 01:12:26;;;;;;;;;;;;;;;12.45;62.06;99213.63;5031247;28;20328;-86
2024/02/26 01:14:51;;;;;;;;;;;;;;;12.41;62.04;99207.91;5029730;28;19924;-86
2024/02/26 01:17:17;;;;;;;;;;;;;;;12.41;62.00;99206.09;5031043;28;19920;-86
2024/02/26 01:19:42;;;;;;;;;;;;;;;12.43;61.92;99205.06;5029819;28;20360;-86
2024/02/26 01:22:08;;;;;;;;;;;;;;;12.45;62.04;99203.88;5030997;28;19913;-86
2024/02/26 01:24:33;;;;;;;;;;;;;;;12.45;61.99;99200.41;5029760;28;20340;-86
2024/02/26 01:26:58;;;;;;;;;;;;;;;12.39;61.72;99196.72;5031167;28;19917;-86
2024/02/26 01:29:23;;;;;;;;;;;;;;;12.37;62.17;99196.09;5031034;28;19913;-86
2024/02/26 01:31:48;;;;;;;;;;;;;;;12.35;62.47;99200.78;5030826;28;19936;-86
2024/02/26 01:34:14;;;;;;;;;;;;;;;12.34;62.39;99201.78;5031428;28;19913;-86
2024/02/26 01:36:39;;;;;;;;;;;;;;;12.31;62.63;99202.19;5034410;28;19920;-86
2024/02/26 01:39:05;;;;;;;;;;;;;;;12.19;62.00;99199.28;5033018;28;19913;-86
2024/02/26 01:41:30;;;;;;;;;;;;;;;12.13;62.19;99200.06;5034321;28;19957;-86
2024/02/26 01:43:55;;;;;;;;;;;;;;;12.05;61.91;99198.41;5034377;28;19909;-86
2024/02/26 01:46:20;;;;;;;;;;;;;;;12.01;62.73;99198.97;5034475;28;19917;-86
2024/02/26 01:48:47;;;;;;;;;;;;;;;11.97;62.93;99193.25;5034595;28;20453;-86
2024/02/26 01:51:14;;;;;;;;;;;;;;;11.93;62.52;99197.31;5034387;28;19983;-86
2024/02/26 01:53:39;;;;;;;;;;;;;;;11.92;62.65;99194.88;5033015;28;19949;-86
2024/02/26 01:56:05;;;;;;;;;;;;;;;11.91;62.46;99203.81;5034405;28;19945;-86
2024/02/26 01:58:30;;;;;;;;;;;;;;;11.90;62.62;99203.00;5034375;28;19920;-86
2024/02/26 02:00:56;;;;;;;;;;;;;;;11.87;62.45;99184.84;5034285;28;19920;-86
2024/02/26 02:03:21;;;;;;;;;;;;;;;11.85;62.46;99189.50;5032768;28;19925;-86
2024/02/26 02:05:47;;;;;;;;;;;;;;;11.82;62.68;99192.53;5033795;28;19917;-86
2024/02/26 02:08:13;;;;;;;;;;;;;;;11.76;62.67;99188.00;5032888;28;19917;-86
2024/02/26 02:10:38;;;;;;;;;;;;;;;11.75;62.92;99181.06;5032790;28;19966;-86
2024/02/26 02:13:03;;;;;;;;;;;;;;;11.78;63.16;99184.19;5033895;28;20446;-86
2024/02/26 02:15:29;;;;;;;;;;;;;;;11.77;63.01;99185.19;5032633;28;20000;-86
2024/02/26 02:17:54;;;;;;;;;;;;;;;11.78;62.73;99178.88;5032717;28;19913;-86
2024/02/26 02:20:24;;;;;;;;;;;;;;;11.79;63.23;99190.28;5033803;28;19967;-86
2024/02/26 02:22:49;;;;;;;;;;;;;;;11.81;63.13;99179.50;5032603;28;20283;-86
2024/02/26 02:25:14;;;;;;;;;;;;;;;11.85;62.71;99181.56;5032365;28;19928;-86
2024/02/26 02:27:40;;;;;;;;;;;;;;;11.91;62.52;99183.47;5033572;28;20414;-85
2024/02/26 02:30:06;;;;;;;;;;;;;;;11.94;62.23;99185.72;5033294;28;19920;-86
2024/02/26 02:32:31;;;;;;;;;;;;;;;11.94;62.27;99179.63;5031870;28;20431;-86
2024/02/26 02:34:57;;;;;;;;;;;;;;;11.94;62.95;99179.63;5033579;28;20348;-86
2024/02/26 02:37:22;;;;;;;;;;;;;;;11.92;63.10;99177.16;5032219;28;20374;-86
2024/02/26 02:39:47;;;;;;;;;;;;;;;11.94;62.50;99177.78;5032470;28;20279;-86
2024/02/26 02:42:13;;;;;;;;;;;;;;;11.94;62.79;99184.91;5033361;28;19924;-86
2024/02/26 02:44:38;;;;;;;;;;;;;;;11.95;62.54;99183.91;5031966;28;19920;-86
2024/02/26 02:47:03;;;;;;;;;;;;;;;11.95;63.03;99187.34;5031706;28;19913;-86
2024/02/26 02:49:28;;;;;;;;;;;;;;;11.95;62.83;99187.34;5033111;28;19913;-86
2024/02/26 02:51:54;;;;;;;;;;;;;;;11.95;62.96;99186.53;5033093;28;19917;-85
2024/02/26 02:54:19;;;;;;;;;;;;;;;11.98;62.63;99186.97;5033211;28;19913;-86
2024/02/26 02:56:45;;;;;;;;;;;;;;;11.98;61.88;99180.84;5033178;28;19913;-86
2024/02/26 02:59:10;;;;;;;;;;;;;;;11.96;62.44;99181.06;5033113;28;20283;-86
2024/02/26 03:01:35;;;;;;;;;;;;;;;11.96;62.66;99172.28;5033072;28;20000;-86
2024/02/26 03:04:01;;;;;;;;;;;;;;;11.96;62.21;99173.13;5032974;28;19920;-86
2024/02/26 03:06:27;;;;;;;;;;;;;;;11.93;62.46;99172.69;5032979;28;19914;-86
2024/02/26 03:08:53;;;;;;;;;;;;;;;11.87;63.09;99174.25;5032884;28;19920;-86
2024/02/26 03:11:19;;;;;;;;;;;;;;;11.87;62.97;99171.59;5031398;28;19913;-86
2024/02/26 03:13:44;;;;;;;;;;;;;;;11.86;63.28;99180.56;5032836;28;20402;-86
2024/02/26 03:16:09;;;;;;;;;;;;;;;11.85;63.28;99170.19;5031594;28;19917;-86
2024/02/26 03:18:35;;;;;;;;;;;;;;;11.86;63.61;99169.16;5031360;28;20393;-86
2024/02/26 03:21:00;;;;;;;;;;;;;;;11.92;62.91;99181.63;5031316;28;19913;-86
2024/02/26 03:23:25;;;;;;;;;;;;;;;11.95;63.30;99174.13;5032782;28;19920;-85
2024/02/26 03:25:51;;;;;;;;;;;;;;;11.96;63.74;99169.66;5032646;28;19924;-86
2024/02/26 03:28:16;;;;;;;;;;;;;;;11.97;62.89;99169.47;5031301;28;19920;-86
2024/02/26 03:30:41;;;;;;;;;;;;;;;11.99;62.81;99172.72;5031175;28;19920;-86
2024/02/26 03:33:07;;;;;;;;;;;;;;;11.99;63.58;99187.78;5031181;28;19916;-86
2024/02/26 03:35:32;;;;;;;;;;;;;;;11.99;63.31;99195.72;5032295;28;20255;-86
2024/02/26 03:37:57;;;;;;;;;;;;;;;12.00;63.55;99195.53;5032437;28;20359;-86
2024/02/26 03:40:22;;;;;;;;;;;;;;;11.93;62.68;99193.84;5030907;28;19913;-86
2024/02/26 03:42:48;;;;;;;;;;;;;;;11.90;62.53;99191.59;5030889;28;19920;-86
2024/02/26 03:45:13;;;;;;;;;;;;;;;11.89;62.81;99192.56;5032429;28;20314;-86
2024/02/26 03:47:41;;;;;;;;;;;;;;;11.85;62.66;99188.69;5032102;28;19913;-86
2024/02/26 03:50:07;;;;;;;;;;;;;;;11.81;62.79;99187.44;5030779;28;19945;-86
2024/02/26 03:52:32;;;;;;;;;;;;;;;11.76;62.68;99188.81;5031901;28;20406;-86
2024/02/26 03:54:58;;;;;;;;;;;;;;;11.78;62.25;99196.59;5030444;28;19920;-86
2024/02/26 03:57:23;;;;;;;;;;;;;;;11.77;62.84;99190.47;5031294;28;19963;-86
2024/02/26 03:59:48;;;;;;;;;;;;;;;11.76;62.06;99190.63;5031742;28;19924;-86
2024/02/26 04:02:13;;;;;;;;;;;;;;;11.73;62.77;99185.75;5030689;28;19925;-86
2024/02/26 04:04:39;;;;;;;;;;;;;;;11.74;62.54;99179.44;5031865;28;19939;-86
2024/02/26 04:07:04;;;;;;;;;;;;;;;11.75;62.50;99181.06;5032062;28;19913;-86
2024/02/26 04:09:31;;;;;;;;;;;;;;;11.73;62.40;99191.03;5031991;28;19948;-86
2024/02/26 04:11:56;;;;;;;;;;;;;;;11.71;63.15;99190.41;5030493;28;19917;-86
2024/02/26 04:14:21;;;;;;;;;;;;;;;11.69;63.23;99184.50;5031893;28;19913;-86
2024/02/26 04:16:51;;;;;;;;;;;;;;;11.65;63.04;99186.72;5031710;28;19917;-86
2024/02/26 04:19:16;;;;;;;;;;;;;;;11.62;63.50;99191.56;5031624;28;19913;-86
2024/02/26 04:21:41;;;;;;;;;;;;;;;11.58;63.59;99191.13;5031580;28;20335;-85
2024/02/26 04:24:07;;;;;;;;;;;;;;;11.51;63.84;99202.69;5031506;28;19917;-86
2024/02/26 04:26:32;;;;;;;;;;;;;;;11.38;64.00;99201.56;5031668;28;19921;-86
2024/02/26 04:28:57;;;;;;;;;;;;;;;11.31;63.92;99184.84;5030391;28;19959;-86
2024/02/26 04:31:22;;;;;;;;;;;;;;;11.31;63.61;99198.06;5030406;28;19913;-86
2024/02/26 04:33:48;;;;;;;;;;;;;;;11.33;64.34;99201.31;5030287;28;20417;-86
2024/02/26 04:36:14;;;;;;;;;;;;;;;11.27;64.66;99194.16;5030289;28;19913;-86
2024/02/26 04:38:39;;;;;;;;;;;;;;;11.30;64.91;99192.97;5031517;28;19913;-86
2024/02/26 04:41:04;;;;;;;;;;;;;;;11.33;63.74;99198.69;5030241;28;19983;-86
2024/02/26 04:43:30;;;;;;;;;;;;;;;11.40;63.53;99198.72;5030151;28;19905;-86
2024/02/26 04:45:56;;;;;;;;;;;;;;;11.39;62.91;99199.75;5031243;28;20011;-86
2024/02/26 04:48:22;;;;;;;;;;;;;;;11.36;63.42;99187.72;5031325;28;20374;-86
2024/02/26 04:50:48;;;;;;;;;;;;;;;11.37;63.77;99186.72;5030189;28;19920;-86
2024/02/26 04:53:13;;;;;;;;;;;;;;;11.34;63.84;99181.81;5030097;28;19917;-86
2024/02/26 04:55:38;;;;;;;;;;;;;;;11.35;63.83;99178.16;5029831;28;19913;-86
2024/02/26 04:58:04;;;;;;;;;;;;;;;11.37;63.95;99178.78;5029917;28;20375;-86
2024/02/26 05:00:29;;;;;;;;;;;;;;;11.40;65.12;99194.25;5031643;28;19913;-86
2024/02/26 05:02:54;;;;;;;;;;;;;;;11.43;64.12;99188.59;5029831;28;19945;-86
2024/02/26 05:05:19;;;;;;;;;;;;;;;11.49;64.22;99178.25;5029684;28;20322;-86
2024/02/26 05:07:45;;;;;;;;;;;;;;;11.55;63.88;99180.13;5031294;28;19924;-86
2024/02/26 05:10:10;;;;;;;;;;;;;;;11.59;64.05;99192.78;5033509;28;20442;-86
2024/02/26 05:12:36;;;;;;;;;;;;;;;11.61;64.34;99196.03;5033916;28;19913;-86
2024/02/26 05:15:01;;;;;;;;;;;;;;;11.56;64.24;99195.81;5033526;28;20378;-85
2024/02/26 05:17:27;;;;;;;;;;;;;;;11.54;64.58;99195.19;5033517;28;20008;-86
2024/02/26 05:19:52;;;;;;;;;;;;;;;11.53;64.22;99198.84;5035002;28;19913;-86
2024/02/26 05:22:17;;;;;;;;;;;;;;;11.58;64.21;99201.72;5035052;28;20313;-86
2024/02/26 05:24:43;;;;;;;;;;;;;;;11.61;63.80;99198.69;5033601;28;19917;-87
2024/02/26 05:27:08;;;;;;;;;;;;;;;11.68;64.00;99209.31;5034924;28;19914;-87
2024/02/26 05:29:33;;;;;;;;;;;;;;;11.71;63.12;99216.84;5035095;28;19913;-86
2024/02/26 05:31:58;;;;;;;;;;;;;;;11.72;63.76;99218.50;5034882;28;19970;-86
2024/02/26 05:34:24;;;;;;;;;;;;;;;11.75;63.76;99212.81;5033378;28;20314;-87
2024/02/26 05:36:49;;;;;;;;;;;;;;;11.77;63.72;99213.44;5034435;28;19913;-86
2024/02/26 05:39:15;;;;;;;;;;;;;;;11.82;63.42;99218.19;5033435;28;19913;-87
2024/02/26 05:41:43;;;;;;;;;;;;;;;11.82;62.67;99219.00;5033352;28;19920;-86
2024/02/26 05:44:10;;;;;;;;;;;;;;;11.80;63.20;99221.00;5034484;28;19971;-86
2024/02/26 05:46:35;;;;;;;;;;;;;;;11.83;63.43;99217.16;5034561;28;20118;-86
2024/02/26 05:49:00;;;;;;;;;;;;;;;11.84;63.14;99216.97;5034417;28;19944;-86
2024/02/26 05:51:26;;;;;;;;;;;;;;;11.85;62.96;99217.78;5034561;28;19953;-86
2024/02/26 05:53:53;;;;;;;;;;;;;;;11.86;63.02;99214.94;5033748;28;19920;-86
2024/02/26 05:56:19;;;;;;;;;;;;;;;11.89;63.00;99216.38;5033031;28;19913;-87
2024/02/26 05:58:44;;;;;;;;;;;;;;;11.91;63.64;99214.41;5032889;28;19920;-87
2024/02/26 06:01:09;;;;;;;;;;;;;;;11.93;62.81;99220.31;5034027;28;19924;-86
2024/02/26 06:03:34;;;;;;;;;;;;;;;11.96;63.18;99222.56;5034121;28;19917;-86
2024/02/26 06:06:00;;;;;;;;;;;;;;;11.98;62.72;99224.00;5034052;28;19917;-86
2024/02/26 06:08:25;;;;;;;;;;;;;;;11.96;63.28;99235.78;5033036;28;19924;-87
2024/02/26 06:10:50;;;;;;;;;;;;;;;11.93;63.29;99231.72;5033920;28;19909;-86
2024/02/26 06:13:15;;;;;;;;;;;;;;;11.96;63.21;99231.31;5032555;28;19951;-86
2024/02/26 06:15:41;;;;;;;;;;;;;;;11.98;62.80;99229.28;5033839;28;19924;-87
2024/02/26 06:18:06;;;;;;;;;;;;;;;12.02;63.04;99227.06;5033729;28;19921;-86
2024/02/26 06:20:31;;;;;;;;;;;;;;;12.01;63.01;99220.97;5033412;28;20517;-87
2024/02/26 06:22:56;;;;;;;;;;;;;;;12.03;62.71;99229.53;5032162;28;19920;-87
2024/02/26 06:25:22;;;;;;;;;;;;;;;12.05;62.95;99238.09;5033574;28;19917;-86
2024/02/26 06:27:47;;;;;;;;;;;;;;;12.06;62.80;99237.06;5033592;28;20298;-86
2024/02/26 06:30:12;;;;;;;;;;;;;;;12.06;63.11;99247.66;5032154;28;19960;-86
2024/02/26 06:32:38;;;;;;;;;;;;;;;12.11;62.33;99248.91;5032248;28;19913;-87
2024/02/26 06:35:08;;;;;;;;;;;;;;;12.13;62.48;99242.41;5032187;28;19913;-86
2024/02/26 06:37:34;;;;;;;;;;;;;;;12.20;62.54;99231.84;5033824;28;20377;-86
2024/02/26 06:39:59;;;;;;;;;;;;;;;12.21;62.74;99233.50;5033405;28;19948;-87
2024/02/26 06:42:25;;;;;;;;;;;;;;;12.22;62.95;99229.81;5031953;28;19913;-86
2024/02/26 06:44:50;;;;;;;;;;;;;;;12.28;62.67;99236.97;5033228;28;19917;-85
2024/02/26 06:47:15;;;;;;;;;;;;;;;12.31;62.49;99240.06;5033196;28;20293;-85
2024/02/26 06:49:40;;;;;;;;;;;;;;;12.35;62.59;99241.28;5033393;28;19960;-85
2024/02/26 06:52:06;;;;;;;;;;;;;;;12.38;62.78;99240.09;5033175;28;19963;-85
2024/02/26 06:54:31;;;;;;;;;;;;;;;12.37;63.24;99249.03;5033340;28;19921;-86
2024/02/26 06:56:56;;;;;;;;;;;;;;;12.41;62.74;99243.16;5032191;28;19913;-85
2024/02/26 06:59:23;;;;;;;;;;;;;;;12.48;62.54;99242.38;5031844;28;19910;-86
2024/02/26 07:01:48;;;;;;;;;;;;;;;12.53;62.08;99242.59;5031420;28;19921;-86
2024/02/26 07:04:14;;;;;;;;;;;;;;;12.49;62.44;99247.47;5033049;28;19978;-86
2024/02/26 07:06:39;;;;;;;;;;;;;;;12.48;62.25;99248.47;5031782;28;19913;-86
2024/02/26 07:09:04;;;;;;;;;;;;;;;12.54;62.21;99254.81;5031603;28;19920;-86
2024/02/26 07:11:30;;;;;;;;;;;;;;;12.57;62.29;99249.94;5032744;28;20338;-86
2024/02/26 07:13:55;;;;;;;;;;;;;;;12.60;62.34;99252.19;5033107;28;19917;-86
2024/02/26 07:16:20;;;;;;;;;;;;;;;12.56;62.89;99264.19;5032104;28;19975;-86
2024/02/26 07:18:46;;;;;;;;;;;;;;;12.53;62.91;99259.28;5032261;28;19963;-87
2024/02/26 07:21:14;;;;;;;;;;;;;;;12.56;63.14;99258.09;5031842;28;19956;-87
2024/02/26 07:23:39;;;;;;;;;;;;;;;12.56;62.93;99256.25;5033089;28;19913;-86
2024/02/26 07:26:05;;;;;;;;;;;;;;;12.63;63.45;99249.19;5031416;28;20368;-86
2024/02/26 07:28:30;;;;;;;;;;;;;;;12.68;62.86;99249.41;5033136;28;19919;-85
2024/02/26 07:30:56;;;;;;;;;;;;;;;12.72;63.33;99247.16;5031964;28;19955;-86
2024/02/26 07:33:21;;;;;;;;;;;;;;;12.77;63.60;99250.03;5039151;28;19972;-85
2024/02/26 07:35:46;;;;;;;;;;;;;;;12.83;62.85;99257.19;5044421;28;19921;-85
2024/02/26 07:38:13;;;;;;;;;;;;;;;12.87;63.32;99247.81;5031667;28;19913;-86
2024/02/26 07:40:38;;;;;;;;;;;;;;;12.94;63.42;99256.59;5031488;28;19913;-85
2024/02/26 07:43:04;;;;;;;;;;;;;;;12.97;63.13;99258.03;5031262;28;19920;-85
2024/02/26 07:45:29;;;;;;;;;;;;;;;13.07;63.11;99260.31;5032922;28;19921;-85
2024/02/26 07:47:54;;;;;;;;;;;;;;;13.19;62.36;99253.41;5031362;28;19913;-85
2024/02/26 07:50:20;;;;;;;;;;;;;;;13.24;62.93;99249.16;5031059;28;19909;-85
2024/02/26 07:52:45;;;;;;;;;;;;;;;13.38;62.37;99251.81;5032234;28;19917;-85
2024/02/26 07:55:10;;;;;;;;;;;;;;;13.44;62.63;99258.97;5032532;28;19913;-84
2024/02/26 07:57:36;;;;;;;;;;;;;;;13.43;62.64;99246.75;5031079;28;19935;-84
2024/02/26 08:00:07;;;;;;;;;;;;;;;13.42;62.68;99248.59;5032000;28;19913;-86
2024/02/26 08:02:33;;;;;;;;;;;;;;;13.38;62.20;99242.06;5031840;28;20005;-85
2024/02/26 08:04:59;;;;;;;;;;;;;;;13.45;61.72;99240.22;5031928;28;19996;-86
2024/02/26 08:07:24;;;;;;;;;;;;;;;13.47;62.11;99243.47;5032135;28;19997;-86
2024/02/26 08:09:49;;;;;;;;;;;;;;;13.56;61.56;99242.25;5031875;28;20291;-86
2024/02/26 08:12:15;;;;;;;;;;;;;;;13.62;61.17;99241.44;5031853;28;19971;-85
2024/02/26 08:14:40;;;;;;;;;;;;;;;13.68;61.05;99242.44;5031758;28;19923;-85
2024/02/26 08:17:05;;;;;;;;;;;;;;;13.75;60.93;99242.44;5030291;28;19925;-84
2024/02/26 08:19:31;;;;;;;;;;;;;;;13.79;60.62;99239.19;5031599;28;20314;-85
2024/02/26 08:21:56;;;;;;;;;;;;;;;13.78;60.61;99226.94;5031885;28;19914;-85
2024/02/26 08:24:22;;;;;;;;;;;;;;;13.81;60.42;99225.69;5030695;28;19917;-86
2024/02/26 08:26:48;;;;;;;;;;;;;;;13.17;60.45;99118.44;5030252;28;19914;-86
2024/02/26 08:29:13;;;;;;;;;;;;;;;13.83;60.60;99226.31;5030243;28;19905;-86
2024/02/26 08:31:38;;;;;;;;;;;;;;;13.89;60.24;99252.84;5031485;28;19914;-86
2024/02/26 08:34:04;;;;;;;;;;;;;;;13.92;60.35;99254.25;5031513;28;19952;-85
2024/02/26 08:36:31;;;;;;;;;;;;;;;13.91;60.26;99253.44;5031476;28;19920;-85
2024/02/26 08:38:56;;;;;;;;;;;;;;;13.96;59.85;99256.28;5030513;28;20378;-86
2024/02/26 08:41:21;;;;;;;;;;;;;;;14.03;59.81;99250.16;5030261;28;19919;-86
2024/02/26 08:43:47;;;;;;;;;;;;;;;14.02;59.74;99253.84;5029969;28;19909;-85
2024/02/26 08:46:12;;;;;;;;;;;;;;;14.06;59.62;99255.88;5034083;28;19917;-85
2024/02/26 08:48:38;;;;;;;;;;;;;;;13.88;59.77;99253.84;5035522;28;19920;-85
2024/02/26 08:51:07;;;;;;;;;;;;;;;13.96;59.79;99247.50;5034233;28;19960;-86
2024/02/26 08:53:32;;;;;;;;;;;;;;;14.02;59.36;99244.03;5034353;28;19913;-86
2024/02/26 08:55:58;;;;;;;;;;;;;;;14.06;58.79;99260.38;5035351;28;19913;-85
2024/02/26 08:58:23;;;;;;;;;;;;;;;14.13;58.82;99251.38;5034199;28;20451;-86
2024/02/26 09:00:48;;;;;;;;;;;;;;;14.21;58.75;99245.84;5035730;28;19970;-86
2024/02/26 09:03:13;;;;;;;;;;;;;;;14.21;58.47;99240.53;5035155;28;19921;-86
2024/02/26 09:05:39;;;;;;;;;;;;;;;14.25;58.49;99235.63;5035593;28;20271;-85
2024/02/26 09:08:04;;;;;;;;;;;;;;;14.26;58.43;99240.72;5035423;28;19913;-85
2024/02/26 09:10:29;;;;;;;;;;;;;;;14.24;58.05;99234.00;5033728;28;19917;-86
2024/02/26 09:12:55;;;;;;;;;;;;;;;14.22;58.25;99239.53;5035366;28;19916;-85
2024/02/26 09:15:20;;;;;;;;;;;;;;;14.26;58.54;99242.56;5053599;28;20066;-85
2024/02/26 09:17:45;;;;;;;;;;;;;;;14.36;58.38;99228.84;5049408;28;19920;-85
2024/02/26 09:20:13;;;;;;;;;;;;;;;14.43;58.19;99235.81;5049619;28;19916;-86
2024/02/26 09:22:38;;;;;;;;;;;;;;;14.44;57.92;99226.00;5040046;28;19924;-86
2024/02/26 09:25:04;;;;;;;;;;;;;;;14.46;57.97;99229.25;5054077;28;19921;-85
2024/02/26 09:27:30;;;;;;;;;;;;;;;14.49;57.88;99240.28;5058529;28;20016;-85
2024/02/26 09:29:55;;;;;;;;;;;;;;;14.53;58.07;99232.69;5044575;28;20736;-85
2024/02/26 09:32:21;;;;;;;;;;;;;;;14.48;57.65;99229.84;5049873;28;19923;-85
2024/02/26 09:34:46;;;;;;;;;;;;;;;14.47;58.07;99228.22;5045027;28;20317;-82
2024/02/26 09:37:12;;;;;;;;;;;;;;;14.49;57.92;99226.16;5054461;28;20007;-82
2024/02/26 09:39:38;;;;;;;;;;;;;;;14.45;58.06;99227.63;5039928;28;19921;-82
2024/02/26 09:42:04;;;;;;;;;;;;;;;14.46;57.48;99224.75;5061877;28;20390;-82
2024/02/26 09:44:30;;;;;;;;;;;;;;;14.49;57.54;99221.69;5053303;28;20059;-82
2024/02/26 09:46:56;;;;;;;;;;;;;;;14.50;57.40;99220.66;5042072;28;20011;-82
2024/02/26 09:49:23;;;;;;;;;;;;;;;14.56;57.38;99226.97;5042535;28;19916;-82
2024/02/26 09:51:49;;;;;;;;;;;;;;;14.60;57.19;99223.66;5040427;28;19964;-82
2024/02/26 09:54:15;;;;;;;;;;;;;;;14.63;57.51;99219.78;5050766;28;19960;-82
2024/02/26 09:56:41;;;;;;;;;;;;;;;14.71;56.91;99219.53;5034332;28;19920;-82
2024/02/26 09:59:08;;;;;;;;;;;;;;;14.76;56.68;99229.53;5040859;28;19917;-82
2024/02/26 10:01:35;;;;;;;;;;;;;;;14.79;56.59;99221.94;5033258;28;20282;-82
2024/02/26 10:04:00;;;;;;;;;;;;;;;14.89;56.38;99224.16;5037076;28;19996;-81
2024/02/26 10:06:28;;;;;;;;;;;;;;;14.97;55.50;99215.94;5034824;28;20377;-81
2024/02/26 10:08:54;;;;;;;;;;;;;;;15.08;55.96;99217.91;5042194;28;19916;-81
2024/02/26 10:11:20;;;;;;;;;;;;;;;15.15;55.10;99207.22;5053735;28;19932;-81
2024/02/26 10:13:45;;;;;;;;;;;;;;;15.20;55.11;99200.22;5044446;28;20364;-81
2024/02/26 10:16:11;;;;;;;;;;;;;;;15.25;55.41;99208.38;5035921;28;20452;-82
2024/02/26 10:18:53;;;;;;;;;;;;;;;15.30;55.34;99207.72;5038881;28;20088;-81
2024/02/26 10:21:19;;;;;;;;;;;;;;;15.26;55.08;99210.00;5037832;28;19925;-81
2024/02/26 10:23:48;;;;;;;;;;;;;;;15.26;53.52;99203.84;5038594;28;19921;-81
2024/02/26 10:26:14;;;;;;;;;;;;;;;15.33;53.99;99195.81;5037195;28;20390;-81
2024/02/26 10:28:42;;;;;;;;;;;;;;;15.38;54.50;99191.47;5041143;28;19917;-82
2024/02/26 10:31:09;;;;;;;;;;;;;;;15.48;54.43;99191.81;5040590;28;19921;-82
2024/02/26 10:33:37;;;;;;;;;;;;;;;15.48;54.21;99194.47;5045612;28;19988;-81
2024/02/26 10:36:04;;;;;;;;;;;;;;;15.53;53.55;99183.16;5032555;28;19913;-81
2024/02/26 10:38:30;;;;;;;;;;;;;;;15.56;54.12;99180.06;5044568;28;19944;-82
2024/02/26 10:40:55;;;;;;;;;;;;;;;15.60;53.99;99183.94;5043908;28;20370;-82
2024/02/26 10:43:20;;;;;;;;;;;;;;;15.62;53.68;99171.28;5044010;28;20027;-82
2024/02/26 10:45:47;;;;;;;;;;;;;;;15.61;53.62;99176.81;5048323;28;19921;-83
2024/02/26 10:48:13;;;;;;;;;;;;;;;15.60;53.75;99178.63;5041127;28;19978;-82
2024/02/26 10:50:38;;;;;;;;;;;;;;;15.63;53.59;99180.06;5047111;28;19913;-82
2024/02/26 10:53:04;;;;;;;;;;;;;;;15.63;53.50;99178.22;5042705;28;19990;-82
2024/02/26 10:55:33;;;;;;;;;;;;;;;15.63;52.61;99177.41;5042989;28;19928;-82
2024/02/26 10:57:58;;;;;;;;;;;;;;;15.64;53.65;99173.72;5049278;28;19940;-82
2024/02/26 11:00:24;;;;;;;;;;;;;;;15.64;53.75;99163.06;5031032;28;20330;-82
2024/02/26 11:02:51;;;;;;;;;;;;;;;15.66;53.21;99158.34;5042716;28;20026;-82
2024/02/26 11:05:16;;;;;;;;;;;;;;;15.67;53.64;99158.13;5032672;28;20413;-82
2024/02/26 11:07:42;;;;;;;;;;;;;;;15.69;52.84;99161.38;5032635;28;19928;-82
2024/02/26 11:10:09;;;;;;;;;;;;;;;15.71;52.79;99159.31;5038398;28;19917;-82
2024/02/26 11:12:37;;;;;;;;;;;;;;;15.71;53.48;99156.63;5039805;28;19982;-82
2024/02/26 11:15:03;;;;;;;;;;;;;;;15.70;52.72;99156.88;5051172;28;20409;-82
2024/02/26 11:17:31;;;;;;;;;;;;;;;15.67;52.58;99150.13;5047321;28;20000;-82
2024/02/26 11:19:57;;;;;;;;;;;;;;;15.67;51.54;99146.66;5039975;28;19917;-82
2024/02/26 11:22:26;;;;;;;;;;;;;;;15.67;52.36;99139.47;5049141;28;19913;-81
2024/02/26 11:24:51;;;;;;;;;;;;;;;15.70;52.22;99139.03;5044977;28;20458;-82
2024/02/26 11:27:18;;;;;;;;;;;;;;;15.74;52.05;99134.91;5051664;28;20007;-82
2024/02/26 11:29:47;;;;;;;;;;;;;;;15.78;51.92;99121.97;5051175;28;20381;-82
2024/02/26 11:32:12;;;;;;;;;;;;;;;15.83;51.57;99120.25;5049317;28;19913;-81
2024/02/26 11:34:38;;;;;;;;;;;;;;;15.91;51.71;99121.00;5032061;28;19920;-82
2024/02/26 11:37:10;;;;;;;;;;;;;;;15.92;50.40;99118.13;5031013;28;19920;-82
2024/02/26 11:39:36;;;;;;;;;;;;;;;16.04;51.72;99107.53;5032188;28;19919;-82
2024/02/26 11:42:05;;;;;;;;;;;;;;;16.12;50.29;99108.03;5034556;28;20019;-82
2024/02/26 11:44:31;;;;;;;;;;;;;;;16.24;51.29;99097.44;5038625;28;19917;-82
2024/02/26 11:46:56;;;;;;;;;;;;;;;16.33;50.91;99095.25;5044855;28;19924;-80
2024/02/26 11:49:27;;;;;;;;;;;;;;;16.43;50.71;99088.38;5032035;28;19917;-81
2024/02/26 11:51:59;;;;;;;;;;;;;;;16.56;49.42;99086.56;5033484;28;20440;-81
2024/02/26 11:54:44;;;;;;;;;;;;;;;16.65;48.33;99095.84;5031889;28;19920;-80
2024/02/26 11:57:21;;;;;;;;;;;;;;;16.73;49.04;99095.56;5030264;28;20295;-81
2024/02/26 11:59:47;;;;;;;;;;;;;;;16.79;51.23;99097.31;5029836;28;19959;-82
2024/02/26 12:02:32;;;;;;;;;;;;;;;16.76;50.71;99100.44;5029706;28;19961;-81
2024/02/26 12:04:58;;;;;;;;;;;;;;;16.69;48.19;99099.72;5031439;28;19921;-81
2024/02/26 12:07:23;;;;;;;;;;;;;;;16.73;48.31;99091.03;5059992;28;20416;-81
2024/02/26 12:09:48;;;;;;;;;;;;;;;16.78;49.39;99085.03;5039008;28;19913;-79
2024/02/26 12:12:17;;;;;;;;;;;;;;;16.77;50.26;99080.72;5050315;28;19993;-81
2024/02/26 12:14:52;;;;;;;;;;;;;;;16.71;50.37;99084.31;5045204;28;19912;-80
2024/02/26 12:17:23;;;;;;;;;;;;;;;16.65;49.25;99077.19;5045863;28;19926;-82
2024/02/26 12:19:48;;;;;;;;;;;;;;;16.64;50.67;99079.06;5050631;28;19913;-81
2024/02/26 12:22:14;;;;;;;;;;;;;;;16.61;49.83;99070.69;5045058;28;19913;-80
2024/02/26 12:24:40;;;;;;;;;;;;;;;16.63;50.48;99065.94;5030978;28;19922;-81
2024/02/26 12:27:06;;;;;;;;;;;;;;;16.67;50.26;99081.28;5031286;28;19917;-81
2024/02/26 12:29:31;;;;;;;;;;;;;;;16.65;50.23;99085.19;5029779;28;19913;-81
2024/02/26 12:31:57;;;;;;;;;;;;;;;16.62;49.86;99094.47;5030775;28;19936;-82
2024/02/26 12:34:23;;;;;;;;;;;;;;;16.60;49.43;99093.06;5031847;28;19963;-82
2024/02/26 12:36:48;;;;;;;;;;;;;;;16.56;48.92;99089.22;5032775;28;19953;-81
2024/02/26 12:39:14;;;;;;;;;;;;;;;16.57;48.74;99089.00;5045056;28;19968;-81
2024/02/26 12:41:40;;;;;;;;;;;;;;;16.57;48.86;99089.00;5033648;28;19921;-82